Time;durP1;ratioP1;P1;durP2;ratioP2;P2;SDS_P1;SDS_P2;PMS_P1;PMS_P2;Temp;Humidity;BMP_temperature;BMP_pressure;BME280_temperature;BME280_humidity;BME280_pressure;Samples;Min_cycle;Max_cycle;Signal;HPM_P1;HPM_P2
2021/10/10 00:01:52;;;;;;;45.20;29.73;;;12.60;99.90;;;12.32;100.00;102278.38;4200769;28;20032;-75
2021/10/10 00:03:53;;;;;;;44.47;26.67;;;12.60;99.90;;;12.34;100.00;102284.38;4200751;28;20028;-75
2021/10/10 00:05:54;;;;;;;41.08;26.88;;;12.60;99.90;;;12.29;100.00;102281.28;4201942;28;20395;-75
2021/10/10 00:07:55;;;;;;;41.97;27.40;;;12.50;99.90;;;12.31;100.00;102289.91;4201865;28;20082;-75
2021/10/10 00:09:56;;;;;;;43.55;27.92;;;12.50;99.90;;;12.32;100.00;102281.03;4201729;28;20025;-75
2021/10/10 00:11:57;;;;;;;40.08;27.40;;;12.50;99.90;;;12.29;100.00;102276.84;4200477;28;20064;-75
2021/10/10 00:13:58;;;;;;;43.78;27.60;;;12.50;99.90;;;12.29;100.00;102276.00;4200708;28;20518;-75
2021/10/10 00:15:58;;;;;;;45.78;28.40;;;12.50;99.90;;;12.31;100.00;102285.47;4201757;28;20511;-76
2021/10/10 00:18:00;;;;;;;34.00;23.80;;;12.50;99.90;;;12.26;100.00;102289.47;4200514;28;20027;-75
2021/10/10 00:20:01;;;;;;;36.45;25.40;;;12.50;99.90;;;12.22;100.00;102286.25;4183714;28;20456;-75
2021/10/10 00:22:02;;;;;;;46.60;29.95;;;12.50;99.90;;;12.27;100.00;102280.59;4172947;28;20032;-75
2021/10/10 00:24:04;;;;;;;41.20;25.40;;;12.50;99.90;;;12.17;100.00;102288.44;4193917;28;20530;-75
2021/10/10 00:26:05;;;;;;;42.45;27.13;;;12.40;99.90;;;12.11;100.00;102284.50;4201391;28;20067;-75
2021/10/10 00:28:06;;;;;;;47.25;28.85;;;12.40;99.90;;;12.10;100.00;102272.25;4200308;28;20024;-75
2021/10/10 00:30:09;;;;;;;43.78;27.38;;;12.40;99.90;;;12.14;100.00;102284.25;4201748;28;20434;-75
2021/10/10 00:32:10;;;;;;;45.03;27.30;;;12.40;99.90;;;12.09;100.00;102277.69;4183947;28;20652;-75
2021/10/10 00:34:11;;;;;;;52.20;31.25;;;12.40;99.90;;;12.24;100.00;102279.03;4201768;28;20129;-75
2021/10/10 00:36:12;;;;;;;44.83;28.00;;;12.40;99.90;;;12.06;100.00;102280.56;4201528;28;20118;-75
2021/10/10 00:38:13;;;;;;;45.15;28.27;;;12.40;99.90;;;12.11;100.00;102287.16;4201729;28;20021;-75
2021/10/10 00:40:14;;;;;;;42.03;28.33;;;12.30;99.90;;;12.17;100.00;102284.00;4200413;28;20035;-75
2021/10/10 00:42:15;;;;;;;55.35;31.30;;;12.40;99.90;;;12.20;100.00;102286.38;4200197;28;20512;-75
2021/10/10 00:44:16;;;;;;;47.13;29.05;;;12.40;99.90;;;12.00;100.00;102276.66;4201405;28;20086;-75
2021/10/10 00:46:17;;;;;;;44.38;29.25;;;12.40;99.90;;;12.05;100.00;102290.31;4200265;28;20017;-75
2021/10/10 00:48:18;;;;;;;48.25;31.92;;;12.30;99.90;;;12.14;100.00;102297.47;4201374;28;20042;-75
2021/10/10 00:50:20;;;;;;;51.70;31.88;;;12.40;99.90;;;12.13;100.00;102293.16;4201432;28;20029;-75
2021/10/10 00:52:21;;;;;;;46.60;29.55;;;12.30;99.90;;;12.05;100.00;102295.59;4201301;28;20029;-75
2021/10/10 00:54:24;;;;;;;43.20;28.80;;;12.40;99.90;;;12.03;100.00;102300.19;4200310;28;20028;-75
2021/10/10 00:56:26;;;;;;;47.97;31.50;;;12.30;99.90;;;12.00;100.00;102295.16;4199961;28;20028;-75
2021/10/10 00:58:27;;;;;;;59.10;33.55;;;12.30;99.90;;;12.05;100.00;102294.75;4200135;28;20070;-75
2021/10/10 01:00:29;;;;;;;51.65;32.08;;;12.30;99.90;;;11.97;100.00;102292.75;4200395;28;20082;-75
2021/10/10 01:02:30;;;;;;;47.67;31.95;;;12.30;99.90;;;11.89;100.00;102289.91;4204762;28;20016;-74
2021/10/10 01:04:30;;;;;;;46.90;29.45;;;12.30;99.90;;;11.90;100.00;102291.59;4204706;28;20086;-75
2021/10/10 01:06:32;;;;;;;53.63;34.63;;;12.30;99.90;;;11.90;100.00;102286.28;4203433;28;20048;-74
2021/10/10 01:08:33;;;;;;;50.63;33.67;;;12.20;99.90;;;11.92;100.00;102287.00;4204510;28;20040;-75
2021/10/10 01:10:35;;;;;;;45.22;28.60;;;12.30;99.90;;;11.87;100.00;102297.13;4204440;28;20020;-75
2021/10/10 01:12:38;;;;;;;59.03;38.10;;;12.20;99.90;;;11.90;100.00;102290.75;4204584;28;20031;-74
2021/10/10 01:14:39;;;;;;;55.25;34.67;;;12.20;99.90;;;11.91;100.00;102292.44;4203293;28;20186;-75
2021/10/10 01:16:40;;;;;;;54.50;34.97;;;12.20;99.90;;;11.91;100.00;102287.97;4203054;28;20507;-75
2021/10/10 01:18:41;;;;;;;56.88;34.88;;;12.20;99.90;;;11.91;100.00;102295.06;4203394;28;20023;-75
2021/10/10 01:20:47;;;;;;;58.20;34.45;;;12.20;99.90;;;11.85;100.00;102293.78;4204417;28;20036;-74
2021/10/10 01:22:48;;;;;;;53.58;35.13;;;12.20;99.90;;;11.89;100.00;102294.34;4204381;28;20487;-74
2021/10/10 01:24:49;;;;;;;54.40;33.63;;;12.30;99.90;;;11.78;100.00;102282.03;4204205;28;20032;-74
2021/10/10 01:26:50;;;;;;;52.88;32.60;;;12.10;99.90;;;11.76;100.00;102289.25;4202849;28;20025;-75
2021/10/10 01:28:51;;;;;;;56.95;35.35;;;12.10;99.90;;;11.87;100.00;102289.19;4204236;28;20047;-75
2021/10/10 01:30:52;;;;;;;60.25;33.97;;;12.20;99.90;;;11.83;100.00;102290.41;4204175;28;20025;-75
2021/10/10 01:32:55;;;;;;;56.65;34.58;;;12.10;99.90;;;11.74;100.00;102288.50;4204046;28;20064;-75
2021/10/10 01:34:56;;;;;;;52.67;34.42;;;12.20;99.90;;;11.78;100.00;102283.81;4203013;28;20032;-74
2021/10/10 01:36:57;;;;;;;54.63;32.92;;;12.20;99.90;;;11.71;100.00;102280.81;4204160;28;20029;-74
2021/10/10 01:38:58;;;;;;;59.00;36.45;;;12.10;99.90;;;11.78;100.00;102286.47;4204010;28;20025;-74
2021/10/10 01:40:59;;;;;;;56.55;34.78;;;12.00;99.90;;;11.79;100.00;102286.34;4203682;28;20028;-74
2021/10/10 01:43:05;;;;;;;59.15;34.35;;;12.10;99.90;;;11.76;100.00;102289.25;4204126;28;20388;-74
2021/10/10 01:45:19;;;;;;;60.22;36.47;;;12.10;99.90;;;11.81;100.00;102289.69;4203138;28;20024;-75
2021/10/10 01:47:20;;;;;;;61.42;35.83;;;12.10;99.90;;;11.71;100.00;102280.81;4203966;28;20498;-74
2021/10/10 01:49:21;;;;;;;60.75;34.63;;;12.10;99.90;;;11.77;100.00;102290.91;4203862;28;20032;-74
2021/10/10 01:51:22;;;;;;;58.58;36.63;;;12.00;99.90;;;11.77;100.00;102282.16;4203969;28;20032;-74
2021/10/10 01:53:23;;;;;;;56.83;35.13;;;12.10;99.90;;;11.78;100.00;102287.31;4202770;28;20479;-74
2021/10/10 01:55:23;;;;;;;57.33;35.22;;;12.10;99.90;;;11.71;100.00;102280.81;4202340;28;20511;-74
2021/10/10 01:57:24;;;;;;;61.15;37.67;;;12.10;99.90;;;11.62;100.00;102276.25;4202789;28;20454;-74
2021/10/10 01:59:25;;;;;;;55.53;35.10;;;12.10;99.90;;;11.70;100.00;102283.63;4203871;28;20071;-74
2021/10/10 02:01:26;;;;;;;54.55;32.30;;;12.00;99.90;;;11.61;100.00;102279.91;4202915;28;20035;-74
2021/10/10 02:03:27;;;;;;;58.60;35.03;;;11.90;99.90;;;11.71;100.00;102285.31;4202506;28;20028;-74
2021/10/10 02:05:28;;;;;;;53.50;34.72;;;12.00;99.90;;;11.75;100.00;102284.91;4203848;28;20021;-74
2021/10/10 02:07:29;;;;;;;58.30;34.20;;;12.00;99.90;;;11.75;100.00;102290.19;4203798;28;20064;-74
2021/10/10 02:09:30;;;;;;;55.35;33.80;;;11.90;99.90;;;11.64;100.00;102279.66;4203714;28;20028;-74
2021/10/10 02:11:31;;;;;;;55.40;33.38;;;12.00;99.90;;;11.61;100.00;102280.75;4202909;28;20495;-74
2021/10/10 02:13:32;;;;;;;54.38;33.28;;;12.00;99.90;;;11.54;100.00;102279.53;4202575;28;20056;-74
2021/10/10 02:15:33;;;;;;;64.78;37.58;;;11.90;99.90;;;11.51;100.00;102276.31;4202297;28;20489;-74
2021/10/10 02:17:35;;;;;;;60.13;36.20;;;11.90;99.90;;;11.62;100.00;102286.84;4202415;28;20063;-74
2021/10/10 02:19:36;;;;;;;57.03;35.92;;;11.90;99.90;;;11.64;100.00;102277.84;4203490;28;20036;-74
2021/10/10 02:21:37;;;;;;;62.05;35.90;;;11.90;99.90;;;11.71;100.00;102285.31;4202127;28;20108;-74
2021/10/10 02:23:38;;;;;;;56.90;33.78;;;12.00;99.90;;;11.75;100.00;102276.13;4202158;28;20028;-74
2021/10/10 02:25:38;;;;;;;45.40;29.35;;;12.00;99.90;;;11.58;100.00;102280.13;4203231;28;20064;-74
2021/10/10 02:27:39;;;;;;;52.20;32.78;;;11.90;99.90;;;11.66;100.00;102275.06;4203439;28;20093;-74
2021/10/10 02:29:41;;;;;;;57.95;34.60;;;11.90;99.90;;;11.64;100.00;102274.34;4203251;28;20078;-74
2021/10/10 02:31:44;;;;;;;55.00;33.63;;;11.90;99.90;;;11.61;100.00;102274.59;4203421;28;20442;-74
2021/10/10 02:33:45;;;;;;;53.22;32.53;;;11.90;99.90;;;11.68;100.00;102277.59;4202021;28;20031;-74
2021/10/10 02:35:46;;;;;;;56.97;35.15;;;12.00;99.90;;;11.65;100.00;102276.00;4185589;28;20037;-74
2021/10/10 02:37:47;;;;;;;47.15;32.25;;;12.00;99.90;;;11.58;100.00;102277.50;4203306;28;20028;-74
2021/10/10 02:39:48;;;;;;;50.42;34.58;;;11.90;99.90;;;11.59;100.00;102276.50;4201995;28;20032;-74
2021/10/10 02:41:49;;;;;;;57.60;33.33;;;11.90;99.90;;;11.55;100.00;102273.31;4202851;28;20162;-74
2021/10/10 02:43:50;;;;;;;48.13;31.02;;;11.90;99.90;;;11.58;100.00;102285.44;4203092;28;20029;-74
2021/10/10 02:45:51;;;;;;;55.17;34.38;;;11.90;99.90;;;11.57;100.00;102274.00;4202948;28;20569;-74
2021/10/10 02:47:52;;;;;;;56.63;34.40;;;11.90;99.90;;;11.60;100.00;102278.19;4201844;28;20032;-74
2021/10/10 02:49:53;;;;;;;54.83;32.85;;;11.90;99.90;;;11.53;100.00;102283.16;4202879;28;20514;-74
2021/10/10 02:51:54;;;;;;;41.83;28.45;;;12.00;99.90;;;11.54;100.00;102281.34;4203095;28;20031;-74
2021/10/10 02:53:55;;;;;;;49.40;30.55;;;11.90;99.90;;;11.62;100.00;102278.91;4202913;28;20084;-74
2021/10/10 02:55:55;;;;;;;51.58;33.42;;;11.90;99.90;;;11.61;100.00;102279.91;4202749;28;20044;-74
2021/10/10 02:57:57;;;;;;;59.15;35.35;;;11.90;99.90;;;11.65;100.00;102274.22;4201566;28;20071;-74
2021/10/10 02:59:58;;;;;;;58.85;33.65;;;12.00;99.90;;;11.76;100.00;102275.19;4201600;28;20021;-74
2021/10/10 03:01:59;;;;;;;54.08;34.33;;;12.00;99.90;;;11.72;100.00;102271.09;4201421;28;20024;-74
2021/10/10 03:04:00;;;;;;;56.08;33.78;;;12.10;99.90;;;11.78;100.00;102278.53;4201658;28;20025;-74
2021/10/10 03:06:01;;;;;;;52.38;32.25;;;12.00;99.90;;;11.65;100.00;102266.28;4202741;28;20027;-74
2021/10/10 03:08:02;;;;;;;51.88;33.67;;;12.00;99.90;;;11.72;100.00;102271.09;4201572;28;20020;-74
2021/10/10 03:10:03;;;;;;;50.15;32.80;;;12.00;99.90;;;11.76;100.00;102275.19;4202621;28;20029;-74
2021/10/10 03:12:04;;;;;;;53.05;30.77;;;12.10;99.90;;;11.64;100.00;102269.06;4201318;28;20031;-74
2021/10/10 03:14:05;;;;;;;57.70;33.47;;;12.00;99.90;;;11.68;100.00;102275.75;4202666;28;20105;-74
2021/10/10 03:16:06;;;;;;;51.13;33.38;;;12.00;99.90;;;11.74;100.00;102275.28;4201441;28;20040;-74
2021/10/10 03:18:07;;;;;;;53.00;32.80;;;12.00;99.90;;;11.73;100.00;102278.06;4201213;28;20075;-74
2021/10/10 03:20:09;;;;;;;57.25;33.30;;;12.10;99.90;;;11.80;100.00;102277.44;4201466;28;20091;-74
2021/10/10 03:22:10;;;;;;;56.63;32.95;;;12.10;99.90;;;11.76;100.00;102273.38;4201472;28;20395;-74
2021/10/10 03:24:11;;;;;;;54.60;34.30;;;12.10;99.90;;;11.80;100.00;102280.06;4201553;28;20024;-74
2021/10/10 03:26:12;;;;;;;55.75;33.80;;;12.20;99.90;;;11.82;100.00;102272.03;4201000;28;20040;-74
2021/10/10 03:28:13;;;;;;;59.17;37.22;;;12.20;99.90;;;11.82;100.00;102287.91;4185034;28;20025;-74
2021/10/10 03:30:13;;;;;;;51.25;33.15;;;12.20;99.90;;;11.78;100.00;102271.44;4202462;28;20028;-74
2021/10/10 03:32:14;;;;;;;52.55;33.63;;;12.30;99.90;;;11.85;100.00;102275.28;4184495;28;20025;-74
2021/10/10 03:34:15;;;;;;;54.22;34.22;;;12.30;99.90;;;11.84;100.00;102280.66;4198135;28;20048;-74
2021/10/10 03:36:16;;;;;;;55.75;36.20;;;12.30;99.90;;;11.78;100.00;102275.88;4202308;28;20492;-74
2021/10/10 03:38:17;;;;;;;57.50;35.40;;;12.30;99.90;;;11.81;100.00;102273.84;4201002;28;20072;-75
2021/10/10 03:40:18;;;;;;;52.88;34.47;;;12.40;99.90;;;11.77;100.00;102271.59;4200754;28;20039;-74
2021/10/10 03:42:19;;;;;;;53.85;33.22;;;12.40;99.90;;;11.76;100.00;102276.03;4200907;28;20047;-75
2021/10/10 03:44:20;;;;;;;55.08;36.80;;;12.30;99.90;;;11.83;100.00;102277.19;4184366;28;20116;-74
2021/10/10 03:46:21;;;;;;;52.13;33.53;;;12.40;99.90;;;11.88;100.00;102277.66;4184342;28;20029;-74
2021/10/10 03:48:23;;;;;;;55.35;34.95;;;12.40;99.90;;;11.92;100.00;102276.41;4194909;28;20037;-74
2021/10/10 03:50:24;;;;;;;56.40;35.22;;;12.40;99.90;;;11.87;100.00;102275.97;4202177;28;20033;-74
2021/10/10 03:52:26;;;;;;;58.85;34.83;;;12.40;99.90;;;11.77;100.00;102272.41;4202118;28;20024;-74
2021/10/10 03:56:28;;;;;;;56.75;35.97;;;12.50;99.90;;;11.77;100.00;102275.03;4200798;28;20074;-74
2021/10/10 03:58:28;;;;;;;57.17;36.33;;;12.40;99.90;;;11.80;100.00;102261.56;4200542;28;20435;-74
2021/10/10 04:00:32;;;;;;;60.47;38.17;;;12.40;99.90;;;11.77;100.00;102275.03;4200665;28;20025;-74
2021/10/10 04:02:33;;;;;;;56.42;34.80;;;12.50;99.90;;;11.80;100.00;102273.97;4200709;28;20048;-74
2021/10/10 04:04:35;;;;;;;54.25;35.65;;;12.40;99.90;;;11.76;100.00;102268.09;4200585;28;20024;-74
2021/10/10 04:06:36;;;;;;;60.65;36.00;;;12.30;99.90;;;11.84;100.00;102276.22;4234036;28;20016;-75
2021/10/10 04:08:43;;;;;;;56.92;36.42;;;12.40;99.90;;;11.86;100.00;102263.72;4201830;28;20514;-74
2021/10/10 04:10:44;;;;;;;55.72;33.42;;;12.40;99.90;;;11.86;100.00;102263.72;4200228;28;20398;-74
2021/10/10 04:12:46;;;;;;;60.20;34.05;;;12.40;99.90;;;11.92;100.00;102272.94;4201750;28;20075;-75
2021/10/10 04:14:47;;;;;;;54.22;33.83;;;12.50;99.90;;;11.91;100.00;102277.41;4200466;28;20036;-75
2021/10/10 04:16:48;;;;;;;53.75;34.35;;;12.50;99.90;;;11.89;100.00;102260.81;4200162;28;20057;-75
2021/10/10 04:18:48;;;;;;;57.80;34.50;;;12.40;99.90;;;12.00;100.00;102270.50;4201610;28;20150;-75
2021/10/10 04:20:49;;;;;;;62.10;38.53;;;12.40;99.90;;;11.91;100.00;102269.47;4201651;28;20028;-74
2021/10/10 04:22:50;;;;;;;62.50;34.53;;;12.50;99.90;;;11.98;100.00;102265.34;4200438;28;20048;-74
2021/10/10 04:24:51;;;;;;;58.78;34.95;;;12.50;99.90;;;11.96;100.00;102259.34;4201624;28;20036;-74
2021/10/10 04:26:52;;;;;;;65.15;36.28;;;12.50;99.90;;;11.89;100.00;102268.75;4200149;28;20017;-74
2021/10/10 04:28:53;;;;;;;59.00;34.78;;;12.50;99.90;;;11.96;100.00;102271.72;4200625;28;20036;-74
2021/10/10 04:30:54;;;;;;;52.90;33.70;;;12.40;99.90;;;11.96;100.00;102271.72;4200151;28;20032;-74
2021/10/10 04:32:55;;;;;;;53.45;32.72;;;12.50;99.90;;;11.94;100.00;102269.22;4201487;28;20511;-74
2021/10/10 04:34:56;;;;;;;45.60;28.95;;;12.50;99.90;;;11.89;100.00;102265.25;4201443;28;20031;-74
2021/10/10 04:36:58;;;;;;;55.80;34.70;;;12.50;99.90;;;11.93;100.00;102266.69;4200404;28;20032;-74
2021/10/10 04:38:59;;;;;;;53.83;32.67;;;12.40;99.90;;;11.95;100.00;102270.88;4200347;28;20032;-74
2021/10/10 04:41:00;;;;;;;49.47;31.67;;;12.40;99.90;;;11.92;100.00;102259.72;4200976;28;20551;-74
2021/10/10 04:43:00;;;;;;;47.60;31.30;;;12.40;99.90;;;11.93;100.00;102264.03;4201596;28;20027;-74
2021/10/10 04:45:03;;;;;;;53.75;33.13;;;12.40;99.90;;;11.89;100.00;102268.75;4201463;28;20035;-74
2021/10/10 04:47:05;;;;;;;49.38;31.23;;;12.30;99.90;;;11.92;100.00;102262.34;4201453;28;20025;-74
2021/10/10 04:49:06;;;;;;;50.67;30.67;;;12.30;99.90;;;11.92;100.00;102265.84;4183326;28;20044;-75
2021/10/10 04:51:07;;;;;;;51.83;31.73;;;12.30;99.90;;;11.88;100.00;102272.38;4217021;28;20034;-75
2021/10/10 04:53:08;;;;;;;44.72;29.77;;;12.20;99.90;;;11.85;100.00;102262.06;4193711;28;20501;-75
2021/10/10 04:55:09;;;;;;;47.15;30.83;;;12.20;99.90;;;12.04;100.00;102278.03;4201196;28;20029;-74
2021/10/10 04:57:10;;;;;;;45.35;29.67;;;12.20;99.90;;;12.04;100.00;102267.47;4201276;28;20039;-74
2021/10/10 04:59:11;;;;;;;45.67;29.45;;;12.30;99.90;;;11.95;100.00;102273.53;4201369;28;20024;-74
2021/10/10 05:01:11;;;;;;;52.58;32.30;;;12.30;99.90;;;12.01;100.00;102272.16;4201375;28;20029;-74
2021/10/10 05:03:12;;;;;;;51.63;32.97;;;12.40;99.90;;;11.93;100.00;102264.88;4201344;28;20027;-74
2021/10/10 05:05:13;;;;;;;46.20;30.05;;;12.40;99.90;;;11.88;100.00;102268.88;4201129;28;20021;-74
2021/10/10 05:07:15;;;;;;;45.80;31.20;;;12.40;99.90;;;11.91;100.00;102265.97;4201395;28;20080;-74
2021/10/10 05:09:16;;;;;;;46.17;31.63;;;12.30;99.90;;;11.95;100.00;102255.00;4201566;28;20092;-74
2021/10/10 05:11:16;;;;;;;50.75;32.88;;;12.40;99.90;;;12.11;100.00;102267.78;4201159;28;20058;-74
2021/10/10 05:13:17;;;;;;;47.13;31.40;;;12.40;99.90;;;12.19;100.00;102263.53;4201164;28;20060;-74
2021/10/10 05:15:19;;;;;;;49.33;30.67;;;12.50;99.90;;;12.04;100.00;102256.03;4201134;28;20446;-74
2021/10/10 05:17:19;;;;;;;48.40;31.48;;;12.50;99.90;;;12.05;100.00;102263.03;4201382;28;20448;-74
2021/10/10 05:19:20;;;;;;;50.75;33.45;;;12.50;99.90;;;12.11;100.00;102258.06;4201203;28;20036;-75
2021/10/10 05:21:21;;;;;;;53.00;31.92;;;12.50;99.90;;;12.19;100.00;102262.69;4200032;28;20032;-75
2021/10/10 05:23:22;;;;;;;49.28;31.85;;;12.60;99.90;;;12.14;100.00;102262.25;4201335;28;20512;-75
2021/10/10 05:25:23;;;;;;;48.65;31.90;;;12.60;99.90;;;12.21;100.00;102266.06;4201032;28;20025;-74
2021/10/10 05:27:24;;;;;;;56.80;33.88;;;12.60;99.90;;;12.05;100.00;102268.31;4201154;28;20043;-74
2021/10/10 05:29:25;;;;;;;55.42;33.83;;;12.60;99.90;;;12.07;100.00;102267.22;4199752;28;20024;-74
2021/10/10 05:31:26;;;;;;;50.40;33.53;;;12.60;99.90;;;12.07;100.00;102267.22;4200935;28;20377;-74
2021/10/10 05:33:27;;;;;;;52.10;33.30;;;12.60;99.90;;;12.16;100.00;102263.78;4201209;28;20107;-74
2021/10/10 05:35:28;;;;;;;55.05;34.55;;;12.70;99.90;;;12.14;100.00;102255.16;4201229;28;20056;-74
2021/10/10 05:37:29;;;;;;;54.40;33.30;;;12.70;99.90;;;12.11;100.00;102267.78;4201063;28;20024;-74
2021/10/10 05:39:30;;;;;;;56.65;34.25;;;12.60;99.90;;;12.09;100.00;102267.94;4199854;28;20048;-74
2021/10/10 05:41:31;;;;;;;52.42;33.15;;;12.70;99.90;;;12.18;100.00;102276.91;4182757;28;20484;-75
2021/10/10 05:43:32;;;;;;;51.88;30.50;;;12.70;99.90;;;12.12;100.00;102269.47;4199697;28;20107;-75
2021/10/10 05:45:33;;;;;;;55.15;34.25;;;12.70;99.90;;;11.99;100.00;102268.81;4201100;28;20024;-75
2021/10/10 05:47:34;;;;;;;55.05;34.28;;;12.70;99.90;;;12.03;100.00;102271.09;4201611;28;20032;-75
2021/10/10 05:49:35;;;;;;;56.38;34.63;;;12.60;99.90;;;12.01;100.00;102267.72;4203881;28;20051;-75
2021/10/10 05:51:36;;;;;;;56.20;34.90;;;12.60;99.90;;;11.90;100.00;102274.88;4202583;28;20535;-75
2021/10/10 05:53:39;;;;;;;55.10;31.80;;;12.70;99.90;;;11.92;100.00;102265.84;4185895;28;20021;-75
2021/10/10 05:55:41;;;;;;;53.50;33.60;;;12.60;99.90;;;12.02;100.00;102273.84;4218874;28;20131;-74
2021/10/10 05:57:46;;;;;;;54.75;34.15;;;12.60;99.90;;;12.04;100.00;102274.56;4186102;28;20056;-75
2021/10/10 05:59:48;;;;;;;61.97;34.03;;;12.70;99.90;;;11.91;100.00;102265.97;4203852;28;20028;-75
2021/10/10 06:01:49;;;;;;;60.47;34.53;;;12.60;99.90;;;12.00;100.00;102281.09;4185677;28;20068;-75
2021/10/10 06:03:50;;;;;;;58.75;34.83;;;12.60;99.90;;;12.01;100.00;102277.47;4203744;28;20033;-75
2021/10/10 06:05:51;;;;;;;59.08;35.95;;;12.60;99.90;;;11.95;100.00;102277.97;4202523;28;20021;-74
2021/10/10 06:07:52;;;;;;;62.60;35.05;;;12.60;99.90;;;12.05;100.00;102281.53;4202335;28;20048;-75
2021/10/10 06:09:54;;;;;;;59.22;34.97;;;12.60;99.90;;;12.04;100.00;102279.84;4202096;28;20173;-75
2021/10/10 06:11:55;;;;;;;62.92;35.58;;;12.60;99.90;;;11.86;100.00;102284.84;4202344;28;20048;-75
2021/10/10 06:13:59;;;;;;;53.25;32.95;;;12.60;99.90;;;11.85;100.00;102282.34;4185692;28;20040;-75
2021/10/10 06:16:00;;;;;;;58.08;35.63;;;12.60;99.90;;;11.89;100.00;102289.06;4203305;28;20049;-75
2021/10/10 06:18:01;;;;;;;58.13;34.17;;;12.60;99.90;;;11.92;100.00;102297.56;4185675;28;20029;-75
2021/10/10 06:20:05;;;;;;;57.63;32.78;;;12.60;99.90;;;12.03;100.00;102300.19;4201904;28;20032;-74
2021/10/10 06:22:06;;;;;;;56.35;33.67;;;12.60;99.90;;;12.06;100.00;102296.44;4202281;28;20024;-74
2021/10/10 06:24:07;;;;;;;58.17;34.83;;;12.60;99.90;;;12.11;100.00;102299.53;4202243;28;20471;-74
2021/10/10 06:26:08;;;;;;;57.00;34.30;;;12.60;99.90;;;12.07;100.00;102292.81;4201840;28;20078;-74
2021/10/10 06:28:09;;;;;;;51.92;31.00;;;12.70;99.90;;;12.11;100.00;102297.75;4203481;28;20062;-75
2021/10/10 06:30:10;;;;;;;51.25;32.13;;;12.70;99.90;;;11.93;100.00;102296.63;4203337;28;20056;-74
2021/10/10 06:32:11;;;;;;;62.53;35.90;;;12.60;99.90;;;12.01;100.00;102296.81;4202157;28;20492;-74
2021/10/10 06:34:12;;;;;;;60.55;35.83;;;12.60;99.90;;;12.13;100.00;102314.31;4203326;28;20024;-74
2021/10/10 06:36:19;;;;;;;58.40;35.03;;;12.60;99.90;;;12.15;100.00;102307.09;4203306;28;20024;-74
2021/10/10 06:38:20;;;;;;;57.22;34.17;;;12.70;99.90;;;12.18;100.00;102309.47;4203345;28;20054;-74
2021/10/10 06:40:21;;;;;;;56.08;32.47;;;12.60;99.90;;;12.18;100.00;102308.66;4200027;28;20032;-74
2021/10/10 06:42:22;;;;;;;53.60;32.90;;;12.70;99.90;;;12.30;100.00;102312.06;4203147;28;20021;-74
2021/10/10 06:44:23;;;;;;;54.58;31.98;;;12.80;99.90;;;12.27;100.00;102312.34;4203469;28;20032;-74
2021/10/10 06:46:25;;;;;;;50.95;31.45;;;12.70;99.90;;;12.21;100.00;102314.50;4201895;28;20060;-74
2021/10/10 06:48:26;;;;;;;54.75;30.33;;;12.80;99.90;;;12.26;100.00;102313.28;4201787;28;20031;-74
2021/10/10 06:50:27;;;;;;;52.35;29.95;;;12.80;99.90;;;12.31;100.00;102317.22;4202984;28;20024;-74
2021/10/10 06:52:28;;;;;;;49.08;31.45;;;12.80;99.90;;;12.34;100.00;102326.69;4201943;28;20024;-74
2021/10/10 06:54:29;;;;;;;47.17;28.67;;;12.90;99.90;;;12.25;100.00;102327.47;4202733;28;20023;-74
2021/10/10 06:56:30;;;;;;;44.88;27.52;;;12.80;99.90;;;12.21;100.00;102330.38;4202658;28;20082;-74
2021/10/10 06:58:32;;;;;;;49.75;30.48;;;12.80;99.90;;;12.25;100.00;102328.31;4202992;28;20032;-74
2021/10/10 07:00:34;;;;;;;50.17;31.48;;;12.80;99.90;;;12.21;100.00;102333.03;4202998;28;20052;-75
2021/10/10 07:02:35;;;;;;;50.25;32.15;;;12.80;99.90;;;12.18;100.00;102338.56;4201709;28;20024;-74
2021/10/10 07:04:35;;;;;;;52.45;32.55;;;12.80;99.90;;;12.20;100.00;102339.31;4202724;28;20032;-74
2021/10/10 07:06:36;;;;;;;48.63;29.80;;;12.80;99.90;;;12.33;100.00;102336.47;4202632;28;20056;-74
2021/10/10 07:08:37;;;;;;;42.20;26.35;;;12.80;99.90;;;12.20;100.00;102341.94;4184962;28;20037;-74
2021/10/10 07:10:38;;;;;;;49.17;30.80;;;12.80;99.90;;;12.29;100.00;102336.84;4201320;28;20032;-74
2021/10/10 07:12:39;;;;;;;43.00;29.27;;;12.90;99.90;;;12.33;100.00;102341.78;4202736;28;20495;-75
2021/10/10 07:14:40;;;;;;;44.03;27.98;;;12.90;99.90;;;12.32;100.00;102340.09;4202633;28;20025;-75
2021/10/10 07:16:43;;;;;;;47.17;30.13;;;12.90;99.90;;;12.38;100.00;102341.38;4202480;28;20063;-75
2021/10/10 07:18:52;;;;;;;47.17;30.65;;;12.90;99.90;;;12.42;100.00;102348.09;4201360;28;20074;-75
2021/10/10 07:25:30;;;;;;;46.80;29.90;;;13.10;99.90;;;12.35;100.00;102349.56;4202660;28;20404;-74
2021/10/10 07:27:41;;;;;;;45.08;27.73;;;13.10;99.90;;;12.43;100.00;102357.69;4202157;28;20121;-74
2021/10/10 07:29:42;;;;;;;44.17;28.02;;;13.10;99.90;;;12.42;100.00;102356.03;4203255;28;20064;-75
2021/10/10 07:31:43;;;;;;;43.13;29.33;;;13.10;99.90;;;12.39;100.00;102351.84;4202050;28;20036;-74
2021/10/10 07:33:44;;;;;;;40.53;27.50;;;13.10;99.90;;;12.43;100.00;102360.34;4185467;28;20032;-75
2021/10/10 07:35:45;;;;;;;43.88;27.35;;;13.20;99.90;;;12.37;100.00;102358.19;4203168;28;20021;-75
2021/10/10 07:37:46;;;;;;;44.00;27.88;;;13.20;99.90;;;12.37;100.00;102358.19;4201921;28;20032;-74
2021/10/10 07:39:47;;;;;;;41.80;27.30;;;13.20;99.90;;;12.41;100.00;102368.41;4202356;28;20036;-75
2021/10/10 07:41:49;;;;;;;41.72;26.98;;;13.20;99.90;;;12.47;100.00;102364.41;4201922;28;20479;-75
2021/10/10 07:43:50;;;;;;;39.65;25.02;;;13.20;99.90;;;12.54;100.00;102377.03;4201781;28;20037;-74
2021/10/10 07:45:52;;;;;;;40.17;25.88;;;13.30;99.90;;;12.58;100.00;102377.59;4201346;28;20111;-73
2021/10/10 07:47:55;;;;;;;37.80;25.70;;;13.30;99.90;;;12.56;100.00;102374.22;4201995;28;20100;-73
2021/10/10 07:49:56;;;;;;;39.97;27.10;;;13.40;99.90;;;12.66;100.00;102375.97;4200670;28;20111;-73
2021/10/10 07:51:57;;;;;;;38.42;25.33;;;13.40;99.90;;;12.66;100.00;102380.44;4202319;28;20021;-72
2021/10/10 07:53:58;;;;;;;34.80;24.40;;;13.40;99.90;;;12.71;100.00;102384.38;4201923;28;20484;-73
2021/10/10 07:55:58;;;;;;;38.83;25.40;;;13.50;99.90;;;12.79;100.00;102386.38;4200456;28;20113;-73
2021/10/10 07:58:00;;;;;;;34.92;24.00;;;13.50;99.90;;;12.70;100.00;102387.13;4200733;28;20082;-73
2021/10/10 08:00:02;;;;;;;35.28;23.63;;;13.50;99.90;;;12.80;100.00;102382.75;4200618;28;20170;-73
2021/10/10 08:02:03;;;;;;;36.70;23.58;;;13.60;99.90;;;12.88;100.00;102395.31;4201743;28;20031;-73
2021/10/10 08:04:04;;;;;;;37.92;25.17;;;13.70;99.90;;;12.78;100.00;102382.06;4201955;28;20063;-73
2021/10/10 08:06:05;;;;;;;35.42;26.00;;;13.70;99.90;;;12.94;100.00;102385.06;4201771;28;20056;-73
2021/10/10 08:08:06;;;;;;;36.13;24.70;;;13.80;99.90;;;13.10;100.00;102398.72;4201828;28;20032;-73
2021/10/10 08:10:08;;;;;;;35.88;24.80;;;13.90;99.90;;;13.08;100.00;102391.88;4199816;28;20055;-73
2021/10/10 08:12:09;;;;;;;35.30;23.13;;;13.90;99.90;;;13.01;100.00;102393.31;4201852;28;20538;-72
2021/10/10 08:14:11;;;;;;;34.35;22.85;;;13.90;99.90;;;12.71;100.00;102394.13;4201697;28;20111;-72
2021/10/10 08:16:12;;;;;;;35.08;22.52;;;13.90;99.90;;;12.91;100.00;102400.38;4201641;28;20408;-73